Time;durP1;ratioP1;P1;durP2;ratioP2;P2;SDS_P1;SDS_P2;PMS_P1;PMS_P2;Temp;Humidity;BMP_temperature;BMP_pressure;BME280_temperature;BME280_humidity;BME280_pressure;Samples;Min_cycle;Max_cycle;Signal;HPM_P1;HPM_P2
2023/06/22 00:00:35;;;;;;;0.70;0.70;;;;;;;24.26;80.01;99656.16;5061902;28;20668;-68
2023/06/22 00:03:04;;;;;;;0.80;0.80;;;;;;;24.23;81.38;99661.66;5072843;28;20192;-68
2023/06/22 00:05:30;;;;;;;0.53;0.53;;;;;;;24.23;80.98;99661.66;5073335;28;20556;-68
2023/06/22 00:07:57;;;;;;;0.70;0.60;;;;;;;24.22;81.51;99664.38;5073030;28;20707;-67
2023/06/22 00:10:24;;;;;;;0.50;0.50;;;;;;;24.18;81.61;99668.19;5067020;28;20208;-67
2023/06/22 00:12:50;;;;;;;0.50;0.50;;;;;;;24.18;81.63;99662.97;5066652;28;20200;-67
2023/06/22 00:15:17;;;;;;;0.70;0.70;;;;;;;24.17;81.75;99666.56;5073420;28;20207;-67
2023/06/22 00:17:44;;;;;;;1.10;1.10;;;;;;;24.08;82.63;99657.63;5073409;28;20267;-67
2023/06/22 00:20:14;;;;;;;0.80;0.80;;;;;;;24.13;82.90;99665.97;5069058;28;20211;-67
2023/06/22 00:22:40;;;;;;;0.70;0.70;;;;;;;24.11;83.38;99667.00;5072688;28;20287;-67
2023/06/22 00:25:08;;;;;;;0.90;0.90;;;;;;;24.07;83.38;99666.44;5072400;28;20235;-68
2023/06/22 00:27:35;;;;;;;0.60;0.60;;;;;;;24.00;82.74;99670.50;5072238;28;20228;-67
2023/06/22 00:30:03;;;;;;;0.50;0.50;;;;;;;23.94;82.84;99671.03;5071743;28;20684;-67
2023/06/22 00:32:30;;;;;;;0.60;0.60;;;;;;;23.91;82.87;99671.28;5072284;28;20703;-67
2023/06/22 00:34:56;;;;;;;0.50;0.50;;;;;;;23.87;83.08;99670.69;5072980;28;20200;-67
2023/06/22 00:37:25;;;;;;;0.60;0.60;;;;;;;23.85;82.17;99669.13;5072360;28;20638;-67
2023/06/22 00:39:52;;;;;;;0.60;0.60;;;;;;;23.80;82.66;99674.75;5071585;28;20654;-67
2023/06/22 00:42:19;;;;;;;0.37;0.37;;;;;;;23.76;82.29;99675.94;5072363;28;20292;-67
2023/06/22 00:44:45;;;;;;;0.93;0.80;;;;;;;23.78;81.27;99676.63;5072136;28;20211;-67
2023/06/22 00:47:14;;;;;;;0.70;0.70;;;;;;;23.71;80.51;99672.03;5071958;28;20212;-67
2023/06/22 00:49:41;;;;;;;0.60;0.60;;;;;;;23.68;80.29;99670.50;5069336;28;20685;-67
2023/06/22 00:52:09;;;;;;;0.70;0.70;;;;;;;23.65;79.65;99677.75;5069864;28;20223;-67
2023/06/22 00:54:37;;;;;;;0.30;0.30;;;;;;;23.60;80.03;99680.72;5070936;28;20607;-67
2023/06/22 00:57:04;;;;;;;0.57;0.57;;;;;;;23.57;80.41;99687.97;5072371;28;20200;-67
2023/06/22 00:59:33;;;;;;;0.53;0.53;;;;;;;23.46;79.83;99675.72;5071648;28;20192;-68
2023/06/22 01:02:00;;;;;;;0.63;0.63;;;;;;;23.48;80.07;99689.56;5071629;28;20203;-68
2023/06/22 01:04:35;;;;;;;0.80;0.60;;;;;;;23.43;80.65;99692.53;5070301;28;20592;-67
2023/06/22 01:07:12;;;;;;;0.50;0.50;;;;;;;23.41;80.67;99693.59;5070147;28;20310;-67
2023/06/22 01:09:56;;;;;;;0.63;0.63;;;;;;;23.37;81.03;99694.75;5069526;28;20785;-67
2023/06/22 01:12:24;;;;;;;0.47;0.47;;;;;;;23.25;82.02;99693.09;5071689;28;20258;-67
2023/06/22 01:14:59;;;;;;;0.50;0.50;;;;;;;23.16;81.91;99691.19;5071803;28;20196;-67
2023/06/22 01:17:27;;;;;;;0.67;0.67;;;;;;;23.07;82.83;99705.00;5071634;28;20710;-67
2023/06/22 01:19:56;;;;;;;0.70;0.70;;;;;;;23.01;83.24;99695.81;5069070;28;20629;-67
2023/06/22 01:22:25;;;;;;;0.50;0.50;;;;;;;22.95;83.26;99683.22;5071708;28;20227;-67
2023/06/22 01:25:06;;;;;;;1.13;1.13;;;;;;;22.93;83.69;99678.09;5070584;28;20208;-67
2023/06/22 01:27:42;;;;;;;0.90;0.90;;;;;;;22.90;83.41;99678.34;5070600;28;20223;-67
2023/06/22 01:30:12;;;;;;;0.37;0.37;;;;;;;22.89;83.78;99675.84;5068281;28;20206;-67
2023/06/22 01:32:41;;;;;;;0.70;0.70;;;;;;;22.85;84.12;99680.47;5071600;28;20192;-67
2023/06/22 01:35:11;;;;;;;0.43;0.43;;;;;;;22.83;84.29;99687.59;5071569;28;20223;-67
2023/06/22 01:37:39;;;;;;;0.83;0.83;;;;;;;22.80;84.66;99671.31;5071529;28;20200;-67
2023/06/22 01:40:08;;;;;;;0.40;0.40;;;;;;;22.76;85.33;99670.72;5069040;28;20204;-67
2023/06/22 01:42:36;;;;;;;1.17;1.17;;;;;;;22.70;85.97;99665.94;5071680;28;20196;-67
2023/06/22 01:45:03;;;;;;;0.63;0.53;;;;;;;22.68;85.85;99659.19;5070711;28;20672;-67
2023/06/22 01:47:32;;;;;;;0.70;0.70;;;;;;;22.70;86.09;99671.19;5069717;28;20224;-67
2023/06/22 01:49:59;;;;;;;0.50;0.50;;;;;;;22.64;86.41;99670.78;5070424;28;20596;-67
2023/06/22 01:52:26;;;;;;;0.37;0.37;;;;;;;22.62;86.23;99673.50;5071221;28;20634;-67
2023/06/22 01:54:53;;;;;;;0.67;0.57;;;;;;;22.63;86.81;99675.16;5071037;28;20215;-67
2023/06/22 01:57:20;;;;;;;0.40;0.40;;;;;;;22.63;87.58;99674.31;5071093;28;20192;-67
2023/06/22 01:59:54;;;;;;;0.60;0.60;;;;;;;22.61;87.62;99677.06;5068293;28;20261;-67
2023/06/22 02:02:26;;;;;;;0.40;0.40;;;;;;;22.57;88.43;99670.41;5070581;28;20199;-67
2023/06/22 02:04:59;;;;;;;0.70;0.70;;;;;;;22.56;87.58;99679.19;5071291;28;20273;-67
2023/06/22 02:07:32;;;;;;;0.43;0.43;;;;;;;22.47;88.11;99664.19;5070066;28;20695;-67
2023/06/22 02:10:00;;;;;;;0.60;0.60;;;;;;;22.51;87.94;99681.31;5067775;28;20204;-67
2023/06/22 02:12:29;;;;;;;0.50;0.50;;;;;;;22.43;88.65;99673.19;5070321;28;20200;-67
2023/06/22 02:14:56;;;;;;;0.43;0.43;;;;;;;22.35;88.46;99665.13;5070897;28;20204;-67
2023/06/22 02:17:24;;;;;;;0.50;0.50;;;;;;;22.36;88.45;99667.59;5070158;28;20198;-67
2023/06/22 02:19:51;;;;;;;0.63;0.63;;;;;;;22.34;88.69;99676.50;5069907;28;20672;-67
2023/06/22 02:22:19;;;;;;;0.50;0.50;;;;;;;22.34;89.34;99673.91;5070183;28;20592;-67
2023/06/22 02:24:46;;;;;;;0.50;0.50;;;;;;;22.31;89.77;99679.34;5069718;28;20203;-67
2023/06/22 02:27:12;;;;;;;0.63;0.63;;;;;;;22.24;90.37;99683.34;5070241;28;20273;-67
2023/06/22 02:29:39;;;;;;;0.60;0.60;;;;;;;22.20;90.10;99681.91;5068604;28;20262;-67
2023/06/22 02:32:06;;;;;;;0.50;0.50;;;;;;;22.16;90.86;99681.31;5070668;28;20266;-67
2023/06/22 02:34:33;;;;;;;0.50;0.50;;;;;;;22.14;90.85;99677.13;5069094;28;20196;-67
2023/06/22 02:37:00;;;;;;;0.50;0.50;;;;;;;22.12;91.13;99684.25;5070667;28;20200;-67
2023/06/22 02:39:29;;;;;;;0.60;0.60;;;;;;;22.10;91.59;99686.16;5069061;28;20743;-67
2023/06/22 02:41:56;;;;;;;0.73;0.73;;;;;;;22.05;92.05;99685.63;5070307;28;20192;-67
2023/06/22 02:44:22;;;;;;;0.40;0.40;;;;;;;22.04;92.10;99692.63;5070270;28;20680;-67
2023/06/22 02:46:49;;;;;;;0.40;0.40;;;;;;;22.02;91.96;99698.91;5070462;28;20207;-67
2023/06/22 02:49:16;;;;;;;0.67;0.67;;;;;;;21.96;92.05;99684.53;5067946;28;20208;-67
2023/06/22 02:51:48;;;;;;;0.70;0.70;;;;;;;21.95;92.33;99699.38;5070187;28;20204;-67
2023/06/22 02:54:16;;;;;;;0.40;0.40;;;;;;;21.92;93.03;99696.97;5068599;28;20638;-67
2023/06/22 02:56:44;;;;;;;0.43;0.43;;;;;;;21.89;93.39;99699.81;5069290;28;20687;-67
2023/06/22 02:59:11;;;;;;;0.50;0.50;;;;;;;21.79;93.34;99695.31;5068961;28;20200;-67
2023/06/22 03:01:39;;;;;;;1.13;1.13;;;;;;;21.69;93.56;99695.16;5069983;28;20269;-67
2023/06/22 03:04:06;;;;;;;0.43;0.43;;;;;;;21.70;93.45;99707.25;5069577;28;20219;-67
2023/06/22 03:06:33;;;;;;;0.50;0.50;;;;;;;21.71;93.34;99705.50;5070112;28;20203;-67
2023/06/22 03:09:03;;;;;;;0.50;0.50;;;;;;;21.71;93.24;99703.69;5067037;28;20219;-67
2023/06/22 03:11:30;;;;;;;0.40;0.40;;;;;;;21.69;92.71;99707.34;5067089;28;20590;-67
2023/06/22 03:13:59;;;;;;;0.60;0.60;;;;;;;21.68;93.55;99700.50;5070203;28;20203;-67
2023/06/22 03:16:26;;;;;;;0.40;0.40;;;;;;;21.68;93.63;99705.72;5069731;28;20204;-67
2023/06/22 03:18:54;;;;;;;0.90;0.90;;;;;;;21.70;94.03;99711.63;5066612;28;20582;-67
2023/06/22 03:21:21;;;;;;;0.60;0.60;;;;;;;21.67;94.35;99722.28;5067933;28;20238;-67
2023/06/22 03:23:47;;;;;;;0.50;0.50;;;;;;;21.65;95.24;99717.16;5069512;28;20646;-67
2023/06/22 03:26:14;;;;;;;0.40;0.40;;;;;;;21.66;95.82;99729.28;5069739;28;20195;-67
2023/06/22 03:28:41;;;;;;;0.80;0.80;;;;;;;21.63;96.60;99723.44;5068516;28;20277;-67
2023/06/22 03:31:09;;;;;;;0.60;0.60;;;;;;;21.64;97.16;99725.97;5068906;28;20208;-67
2023/06/22 03:33:36;;;;;;;0.60;0.60;;;;;;;21.61;97.74;99726.19;5069992;28;20202;-67
2023/06/22 03:36:03;;;;;;;0.50;0.50;;;;;;;21.60;98.60;99729.72;5071612;28;20195;-67
2023/06/22 03:38:29;;;;;;;2.17;0.80;;;;;;;21.55;99.55;99713.53;5073715;28;20268;-67
2023/06/22 03:40:56;;;;;;;0.63;0.63;;;;;;;21.55;99.71;99710.94;5071326;28;20595;-67
2023/06/22 03:43:24;;;;;;;0.60;0.60;;;;;;;21.72;100.00;99726.25;5073025;28;20195;-67
2023/06/22 03:45:50;;;;;;;0.60;0.60;;;;;;;21.71;100.00;99711.50;5073043;28;20199;-67
2023/06/22 03:48:19;;;;;;;0.97;0.97;;;;;;;21.84;100.00;99714.91;5072517;28;20256;-67
2023/06/22 03:50:45;;;;;;;0.40;0.40;;;;;;;21.97;100.00;99720.97;5068741;28;20200;-67
2023/06/22 03:53:13;;;;;;;0.70;0.70;;;;;;;22.04;99.54;99720.50;5072061;28;20282;-67
2023/06/22 03:55:49;;;;;;;0.40;0.40;;;;;;;22.17;99.61;99724.75;5070593;28;20207;-67
2023/06/22 03:58:15;;;;;;;0.47;0.47;;;;;;;22.30;98.37;99712.47;5072717;28;20283;-67
2023/06/22 04:00:42;;;;;;;0.70;0.67;;;;;;;22.45;98.48;99713.13;5072385;28;20224;-67
2023/06/22 04:03:09;;;;;;;0.40;0.40;;;;;;;22.58;98.83;99715.66;5073067;28;20208;-67
2023/06/22 04:05:37;;;;;;;0.97;0.97;;;;;;;22.75;97.77;99721.31;5073069;28;20722;-67
2023/06/22 04:08:04;;;;;;;0.73;0.73;;;;;;;22.88;95.00;99726.44;5073043;28;20269;-67
2023/06/22 04:10:31;;;;;;;0.63;0.63;;;;;;;22.99;94.54;99729.94;5070628;28;20204;-67
2023/06/22 04:12:58;;;;;;;0.57;0.57;;;;;;;23.13;93.91;99722.81;5071701;28;20208;-67
2023/06/22 04:15:25;;;;;;;0.60;0.60;;;;;;;23.26;93.26;99715.69;5072389;28;20204;-67
2023/06/22 04:17:51;;;;;;;0.60;0.60;;;;;;;23.41;93.25;99717.16;5072193;28;20204;-67
2023/06/22 04:20:18;;;;;;;1.17;1.17;;;;;;;23.52;94.18;99714.53;5069368;28;20218;-67
2023/06/22 04:22:46;;;;;;;0.70;0.70;;;;;;;23.77;93.66;99722.13;5070720;28;20249;-67
2023/06/22 04:25:13;;;;;;;0.77;0.77;;;;;;;23.98;91.65;99720.38;5070794;28;20262;-67
2023/06/22 04:27:40;;;;;;;0.60;0.60;;;;;;;24.16;90.07;99728.59;5070551;28;20232;-68
2023/06/22 04:30:08;;;;;;;0.60;0.60;;;;;;;24.30;88.41;99730.06;5070176;28;20303;-67
2023/06/22 04:32:35;;;;;;;0.70;0.70;;;;;;;24.19;86.84;99727.50;5071208;28;20208;-67
2023/06/22 04:35:04;;;;;;;0.60;0.60;;;;;;;24.13;87.38;99734.09;5070236;28;20202;-67
2023/06/22 04:37:31;;;;;;;0.63;0.63;;;;;;;24.17;87.91;99732.84;5071122;28;20680;-67
2023/06/22 04:39:59;;;;;;;0.47;0.47;;;;;;;24.28;88.26;99732.00;5068907;28;20200;-67
2023/06/22 04:42:27;;;;;;;0.93;0.93;;;;;;;24.35;86.40;99714.81;5069644;28;20204;-68
2023/06/22 04:44:54;;;;;;;0.70;0.70;;;;;;;24.65;86.76;99733.28;5069207;28;20246;-68
2023/06/22 04:47:21;;;;;;;0.70;0.70;;;;;;;24.86;85.42;99728.88;5069467;28;20223;-68
2023/06/22 04:49:48;;;;;;;0.50;0.50;;;;;;;25.03;83.36;99730.94;5068707;28;20288;-68
2023/06/22 04:52:17;;;;;;;1.17;1.07;;;;;;;25.18;82.72;99728.78;5069315;28;20200;-68
2023/06/22 04:54:47;;;;;;;0.60;0.60;;;;;;;25.43;82.83;99738.84;5069122;28;20580;-68
2023/06/22 04:57:15;;;;;;;0.70;0.70;;;;;;;25.65;81.36;99735.25;5067436;28;20700;-68
2023/06/22 04:59:43;;;;;;;0.80;0.80;;;;;;;25.88;79.88;99723.53;5069370;28;20204;-68
2023/06/22 05:02:10;;;;;;;0.63;0.63;;;;;;;26.15;77.37;99729.94;5067421;28;20215;-68
2023/06/22 05:04:38;;;;;;;1.90;1.00;;;;;;;26.38;77.27;99734.00;5070850;28;20199;-69
2023/06/22 05:07:05;;;;;;;0.63;0.63;;;;;;;26.62;76.25;99724.69;5068197;28;20477;-68
2023/06/22 05:09:33;;;;;;;1.07;1.07;;;;;;;26.86;74.85;99734.81;5069707;28;20269;-69
2023/06/22 05:12:02;;;;;;;0.80;0.80;;;;;;;27.01;74.84;99729.94;5069110;28;20251;-70
2023/06/22 05:14:30;;;;;;;0.90;0.90;;;;;;;27.14;71.92;99731.28;5070711;28;20736;-68
2023/06/22 05:16:58;;;;;;;0.90;0.90;;;;;;;27.26;73.51;99728.47;5071132;28;20274;-68
2023/06/22 05:19:25;;;;;;;0.70;0.70;;;;;;;27.26;72.47;99728.47;5068645;28;20200;-68
2023/06/22 05:21:52;;;;;;;0.60;0.60;;;;;;;27.50;71.83;99742.81;5069606;28;20211;-69
2023/06/22 05:24:18;;;;;;;0.80;0.80;;;;;;;27.74;71.11;99739.66;5070983;28;20254;-69
2023/06/22 05:26:45;;;;;;;1.07;1.07;;;;;;;27.87;70.43;99737.50;5070991;28;20261;-68
2023/06/22 05:29:12;;;;;;;0.80;0.80;;;;;;;28.03;70.20;99734.19;5025591;28;1259102;-68
2023/06/22 05:31:41;;;;;;;0.70;0.70;;;;;;;28.12;68.25;99739.44;5070047;28;20200;-68
2023/06/22 05:34:08;;;;;;;1.00;1.00;;;;;;;28.17;65.93;99735.53;5069661;28;20666;-68
2023/06/22 05:36:34;;;;;;;0.70;0.70;;;;;;;28.25;66.83;99732.97;5069233;28;20192;-69
2023/06/22 05:39:12;;;;;;;0.93;0.93;;;;;;;28.29;64.54;99727.25;5069517;28;20204;-68
2023/06/22 05:41:39;;;;;;;1.20;1.20;;;;;;;28.51;63.54;99733.84;5069893;28;20212;-67
2023/06/22 05:44:06;;;;;;;0.63;0.63;;;;;;;28.59;63.36;99732.13;5069643;28;20204;-70
2023/06/22 05:46:33;;;;;;;0.77;0.77;;;;;;;28.69;62.86;99736.53;5066522;28;20211;-70
2023/06/22 05:49:01;;;;;;;0.98;0.90;;;;;;;28.82;62.99;99736.94;5069519;28;20223;-70
2023/06/22 05:51:27;;;;;;;0.68;0.68;;;;;;;28.97;60.94;99735.41;5068921;28;20200;-70
2023/06/22 05:53:54;;;;;;;0.70;0.70;;;;;;;29.19;61.24;99735.69;5070235;28;20225;-70
2023/06/22 05:56:21;;;;;;;1.13;0.95;;;;;;;29.38;62.71;99733.84;5067087;28;20231;-70
2023/06/22 05:58:48;;;;;;;0.70;0.70;;;;;;;29.55;61.11;99730.28;5068001;28;20196;-70
2023/06/22 06:01:15;;;;;;;0.70;0.70;;;;;;;29.80;61.37;99731.19;5069511;28;20208;-70
2023/06/22 06:03:42;;;;;;;1.17;1.08;;;;;;;29.98;58.81;99734.59;5068313;28;20734;-70
2023/06/22 06:06:11;;;;;;;1.10;1.00;;;;;;;30.16;58.57;99730.00;5066151;28;20588;-70
2023/06/22 06:08:38;;;;;;;1.17;1.17;;;;;;;30.19;60.33;99737.59;5066393;28;20243;-69
2023/06/22 06:11:05;;;;;;;0.95;0.95;;;;;;;30.37;58.35;99742.75;5067394;28;20199;-73
2023/06/22 06:13:31;;;;;;;1.23;1.15;;;;;;;30.57;55.63;99746.75;5068810;28;20203;-72
2023/06/22 06:15:59;;;;;;;0.65;0.65;;;;;;;30.72;58.34;99742.47;5067143;28;20262;-71
2023/06/22 06:18:26;;;;;;;0.57;0.57;;;;;;;30.99;56.16;99734.16;5067551;28;20676;-71
2023/06/22 06:20:53;;;;;;;0.93;0.93;;;;;;;31.07;56.54;99728.88;5068293;28;20261;-71
2023/06/22 06:23:21;;;;;;;0.98;0.98;;;;;;;31.05;56.72;99730.03;5067237;28;20215;-70
2023/06/22 06:25:47;;;;;;;0.80;0.80;;;;;;;31.18;54.29;99733.78;5067959;28;20273;-71
2023/06/22 06:28:14;;;;;;;0.80;0.80;;;;;;;31.26;53.79;99740.91;5067342;28;20227;-71
2023/06/22 06:30:42;;;;;;;1.13;1.08;;;;;;;31.41;52.84;99735.69;5067761;28;20212;-71
2023/06/22 06:33:09;;;;;;;0.50;0.50;;;;;;;31.48;54.95;99734.03;5069434;28;20207;-69
2023/06/22 06:35:37;;;;;;;1.08;1.05;;;;;;;31.50;54.62;99721.47;5068559;28;20211;-69
2023/06/22 06:38:04;;;;;;;0.80;0.80;;;;;;;31.54;53.65;99728.06;5068251;28;20664;-69
2023/06/22 06:40:32;;;;;;;0.70;0.70;;;;;;;31.61;51.16;99729.03;5068128;28;20232;-69
2023/06/22 06:42:59;;;;;;;0.70;0.70;;;;;;;31.66;50.02;99726.72;5067768;28;20257;-69
2023/06/22 06:45:28;;;;;;;1.85;1.00;;;;;;;31.79;51.82;99716.38;5069470;28;20207;-69
2023/06/22 06:47:55;;;;;;;1.00;1.00;;;;;;;32.00;54.14;99729.00;5069085;28;20729;-69
2023/06/22 06:50:22;;;;;;;0.70;0.70;;;;;;;32.24;51.22;99726.22;5069748;28;20219;-69
2023/06/22 06:52:49;;;;;;;0.95;0.95;;;;;;;32.50;50.14;99731.16;5069330;28;20199;-69
2023/06/22 06:55:17;;;;;;;1.55;0.70;;;;;;;32.51;50.58;99730.13;5069695;28;20203;-69
2023/06/22 06:57:48;;;;;;;0.75;0.75;;;;;;;32.62;47.96;99724.44;5066101;28;20219;-68
2023/06/22 07:00:15;;;;;;;0.98;0.98;;;;;;;32.77;48.59;99722.63;5069010;28;20204;-69
2023/06/22 07:02:43;;;;;;;1.40;1.40;;;;;;;32.76;49.01;99713.84;5068049;28;20277;-70
2023/06/22 07:05:11;;;;;;;0.68;0.68;;;;;;;33.02;47.59;99724.03;5068790;28;20687;-69
2023/06/22 07:07:38;;;;;;;1.17;0.80;;;;;;;33.02;46.93;99724.03;5068144;28;20680;-69
2023/06/22 07:10:06;;;;;;;0.85;0.85;;;;;;;32.81;49.52;99707.16;5069337;28;20216;-69
2023/06/22 07:12:33;;;;;;;1.13;1.10;;;;;;;32.89;49.07;99726.53;5068934;28;20576;-69
2023/06/22 07:15:04;;;;;;;0.63;0.63;;;;;;;32.64;48.21;99728.56;5068732;28;20207;-68
2023/06/22 07:17:31;;;;;;;0.80;0.80;;;;;;;32.42;48.63;99728.56;5064598;28;20664;-69
2023/06/22 07:19:58;;;;;;;0.80;0.80;;;;;;;32.12;49.55;99728.44;5069910;28;20193;-69
2023/06/22 07:22:25;;;;;;;0.98;0.98;;;;;;;32.16;51.34;99729.75;5068676;28;21375;-69
2023/06/22 07:24:52;;;;;;;1.17;1.00;;;;;;;32.21;50.09;99735.34;5068022;28;20211;-69
2023/06/22 07:27:19;;;;;;;1.75;0.95;;;;;;;32.29;48.61;99720.38;5068547;28;20295;-68
2023/06/22 07:29:46;;;;;;;0.73;0.73;;;;;;;32.37;50.74;99704.41;5069253;28;20220;-69
2023/06/22 07:32:14;;;;;;;0.80;0.80;;;;;;;32.67;51.04;99730.03;5068928;28;20196;-69
2023/06/22 07:34:41;;;;;;;0.63;0.63;;;;;;;32.79;50.75;99730.44;5068296;28;20212;-69
2023/06/22 07:37:08;;;;;;;0.73;0.73;;;;;;;33.06;50.34;99740.44;5068229;28;20658;-69
2023/06/22 07:39:35;;;;;;;1.00;1.00;;;;;;;33.19;51.35;99738.00;5069105;28;20200;-70
2023/06/22 07:42:01;;;;;;;1.08;0.85;;;;;;;33.37;48.67;99740.31;5065900;28;20697;-69
2023/06/22 07:44:28;;;;;;;1.05;1.05;;;;;;;33.56;50.67;99729.94;5068212;28;20204;-69
2023/06/22 07:46:55;;;;;;;0.90;0.90;;;;;;;33.59;48.44;99740.19;5067479;28;20197;-70
2023/06/22 07:49:23;;;;;;;0.57;0.57;;;;;;;33.52;49.86;99739.28;5069056;28;20224;-69
2023/06/22 07:51:50;;;;;;;0.70;0.70;;;;;;;33.69;48.03;99738.13;5065621;28;20228;-69
2023/06/22 07:54:17;;;;;;;0.93;0.93;;;;;;;33.83;45.86;99740.94;5068887;28;20204;-70
2023/06/22 07:56:44;;;;;;;1.83;1.35;;;;;;;33.95;50.36;99728.78;5067861;28;20706;-70
2023/06/22 07:59:10;;;;;;;0.65;0.65;;;;;;;34.08;47.42;99729.75;5067003;28;20223;-69
2023/06/22 08:01:37;;;;;;;0.82;0.82;;;;;;;34.20;45.94;99728.25;5069970;28;20633;-70
2023/06/22 08:04:05;;;;;;;0.93;0.88;;;;;;;34.31;44.16;99723.44;5070502;28;20204;-70
2023/06/22 08:06:33;;;;;;;0.38;0.38;;;;;;;34.39;43.56;99725.97;5068659;28;20235;-69
2023/06/22 08:09:00;;;;;;;0.77;0.77;;;;;;;34.38;44.83;99716.34;5068141;28;20541;-70
2023/06/22 08:11:28;;;;;;;0.93;0.93;;;;;;;34.32;42.61;99717.09;5069528;28;20211;-70
2023/06/22 08:13:55;;;;;;;1.08;1.08;;;;;;;34.52;44.44;99710.09;5069017;28;20211;-70
2023/06/22 08:16:22;;;;;;;0.90;0.90;;;;;;;34.54;43.67;99713.41;5068050;28;20652;-69
2023/06/22 08:18:49;;;;;;;0.93;0.93;;;;;;;34.66;44.35;99703.91;5067080;28;20295;-70
2023/06/22 08:21:16;;;;;;;0.80;0.80;;;;;;;34.89;41.90;99709.81;5066641;28;20201;-69
2023/06/22 08:23:44;;;;;;;1.17;0.90;;;;;;;34.92;41.13;99706.75;5072976;28;20203;-68
2023/06/22 08:26:11;;;;;;;0.75;0.75;;;;;;;34.84;42.10;99700.75;5071386;28;20208;-69
2023/06/22 08:28:38;;;;;;;0.70;0.70;;;;;;;34.51;41.09;99695.16;5070864;28;20243;-69
2023/06/22 08:31:05;;;;;;;0.93;0.90;;;;;;;34.37;42.94;99701.38;5069783;28;20204;-69
2023/06/22 08:33:32;;;;;;;1.05;0.70;;;;;;;34.55;43.48;99694.56;5069794;28;20207;-70
2023/06/22 08:35:59;;;;;;;0.77;0.77;;;;;;;34.77;43.63;99692.69;5070920;28;20211;-69
2023/06/22 08:38:26;;;;;;;1.15;1.05;;;;;;;34.93;41.06;99691.59;5072570;28;20270;-69
2023/06/22 08:40:54;;;;;;;0.80;0.80;;;;;;;34.93;39.01;99687.06;5071522;28;20200;-69
2023/06/22 08:43:21;;;;;;;0.85;0.85;;;;;;;34.94;39.83;99693.22;5071107;28;20215;-69
2023/06/22 08:45:48;;;;;;;2.17;0.70;;;;;;;34.84;39.01;99677.59;5069719;28;20211;-70
2023/06/22 08:48:15;;;;;;;1.63;0.80;;;;;;;35.09;40.68;99681.41;5070463;28;20219;-68
2023/06/22 08:50:42;;;;;;;0.50;0.50;;;;;;;35.22;37.79;99691.38;5071144;28;20955;-69
2023/06/22 08:53:08;;;;;;;0.98;0.98;;;;;;;35.34;38.59;99689.81;5068427;28;20671;-69
2023/06/22 08:55:35;;;;;;;0.63;0.63;;;;;;;35.43;35.97;99698.44;5072162;28;20200;-69
2023/06/22 08:58:04;;;;;;;0.68;0.68;;;;;;;35.12;36.43;99696.25;5071829;28;20211;-69
2023/06/22 09:00:34;;;;;;;1.00;1.00;;;;;;;35.35;37.27;99695.97;5071231;28;20291;-69
2023/06/22 09:03:01;;;;;;;0.73;0.73;;;;;;;35.59;36.47;99698.94;5071963;28;20203;-70
2023/06/22 09:05:28;;;;;;;0.80;0.80;;;;;;;35.80;35.87;99703.34;5070603;28;20200;-69
2023/06/22 09:07:55;;;;;;;0.93;0.93;;;;;;;35.55;34.67;99702.16;5072337;28;20282;-69
2023/06/22 09:10:22;;;;;;;0.68;0.68;;;;;;;35.50;35.01;99696.63;5072054;28;20672;-69
2023/06/22 09:12:49;;;;;;;0.85;0.85;;;;;;;35.64;35.34;99691.16;5072369;28;20203;-69
2023/06/22 09:15:17;;;;;;;0.70;0.70;;;;;;;35.80;34.88;99698.81;5072585;28;20569;-69
2023/06/22 09:17:46;;;;;;;0.68;0.68;;;;;;;35.70;33.45;99700.22;5072356;28;20192;-69
2023/06/22 09:20:13;;;;;;;0.82;0.82;;;;;;;35.46;33.91;99698.88;5072667;28;20287;-69
2023/06/22 09:22:40;;;;;;;0.88;0.88;;;;;;;35.47;34.83;99694.38;5070683;28;20214;-68
2023/06/22 09:25:07;;;;;;;1.05;1.00;;;;;;;35.40;34.61;99694.34;5071386;28;20202;-71
2023/06/22 09:27:34;;;;;;;0.68;0.68;;;;;;;35.40;35.67;99683.66;5066612;28;20247;-69
2023/06/22 09:30:00;;;;;;;0.60;0.60;;;;;;;35.25;33.50;99686.47;5072733;28;20218;-69
2023/06/22 09:32:29;;;;;;;1.15;1.10;;;;;;;35.11;34.18;99683.94;5071736;28;20204;-68
2023/06/22 09:34:55;;;;;;;0.60;0.60;;;;;;;35.13;34.44;99685.38;5072089;28;20618;-69
2023/06/22 09:37:22;;;;;;;1.00;0.90;;;;;;;35.40;36.22;99677.50;5070425;28;20208;-69
2023/06/22 09:39:49;;;;;;;1.10;1.10;;;;;;;35.61;34.20;99680.06;5066147;28;20599;-70
2023/06/22 09:42:16;;;;;;;0.70;0.70;;;;;;;35.83;34.53;99673.59;5069700;28;20253;-70
2023/06/22 09:44:42;;;;;;;0.52;0.52;;;;;;;35.83;34.61;99676.25;5071013;28;20269;-69
2023/06/22 09:47:09;;;;;;;0.70;0.70;;;;;;;35.70;35.19;99676.22;5070448;28;20211;-69
2023/06/22 09:49:37;;;;;;;1.13;1.13;;;;;;;35.62;34.46;99676.38;5071110;28;20224;-67
2023/06/22 09:52:05;;;;;;;0.82;0.82;;;;;;;35.76;35.23;99673.56;5067805;28;20207;-69
2023/06/22 09:54:31;;;;;;;0.70;0.70;;;;;;;35.79;35.51;99672.34;5070990;28;20200;-68
2023/06/22 09:56:58;;;;;;;0.98;0.98;;;;;;;35.93;35.79;99663.31;5067864;28;20200;-69
2023/06/22 09:59:25;;;;;;;0.70;0.70;;;;;;;35.79;35.74;99667.81;5067593;28;20203;-69
2023/06/22 10:01:52;;;;;;;0.65;0.65;;;;;;;35.73;34.73;99662.47;5069027;28;20196;-69
2023/06/22 10:04:18;;;;;;;0.90;0.90;;;;;;;35.81;34.45;99659.59;5065831;28;20626;-70
2023/06/22 10:06:47;;;;;;;0.88;0.82;;;;;;;35.90;34.68;99650.38;5067885;28;20200;-70
2023/06/22 10:09:14;;;;;;;0.70;0.70;;;;;;;36.08;33.21;99660.50;5068944;28;20291;-70
2023/06/22 10:11:41;;;;;;;0.85;0.85;;;;;;;35.72;32.92;99656.31;5071174;28;20200;-70
2023/06/22 10:14:07;;;;;;;0.60;0.60;;;;;;;35.69;34.14;99663.91;5067594;28;20219;-71
2023/06/22 10:16:35;;;;;;;1.00;0.90;;;;;;;35.82;33.30;99658.59;5069602;28;20211;-70
2023/06/22 10:19:02;;;;;;;1.30;0.80;;;;;;;35.85;33.29;99654.69;5069380;28;20254;-71
2023/06/22 10:21:29;;;;;;;0.70;0.70;;;;;;;35.67;32.37;99660.63;5068749;28;20199;-69
2023/06/22 10:23:57;;;;;;;0.70;0.70;;;;;;;35.66;32.86;99640.28;5069097;28;20208;-69
2023/06/22 10:26:24;;;;;;;0.93;0.70;;;;;;;35.77;33.93;99650.34;5069765;28;20209;-69
2023/06/22 10:28:51;;;;;;;0.80;0.80;;;;;;;35.78;32.91;99644.00;5068449;28;20231;-69
2023/06/22 10:31:18;;;;;;;0.82;0.82;;;;;;;35.93;33.41;99644.63;5068458;28;20668;-69
2023/06/22 10:33:45;;;;;;;0.65;0.65;;;;;;;36.05;34.34;99635.03;5068619;28;20206;-69
2023/06/22 10:36:13;;;;;;;0.93;0.93;;;;;;;36.09;33.45;99630.91;5068116;28;20208;-68
2023/06/22 10:38:41;;;;;;;0.80;0.80;;;;;;;36.18;32.18;99635.06;5068041;28;20215;-69
2023/06/22 10:41:10;;;;;;;0.95;0.80;;;;;;;36.21;34.06;99629.31;5068333;28;20228;-69
2023/06/22 10:43:38;;;;;;;0.90;0.90;;;;;;;36.22;32.31;99620.25;5064690;28;20299;-70
2023/06/22 10:46:05;;;;;;;1.00;1.00;;;;;;;36.05;33.62;99626.19;5065165;28;20215;-68
2023/06/22 10:48:33;;;;;;;0.60;0.60;;;;;;;35.97;33.38;99626.38;5068262;28;20207;-69
2023/06/22 10:51:00;;;;;;;1.15;1.15;;;;;;;35.78;32.71;99617.31;5067221;28;20216;-69
2023/06/22 10:53:27;;;;;;;0.80;0.80;;;;;;;35.71;32.41;99616.47;5066466;28;20595;-69
2023/06/22 10:55:54;;;;;;;1.13;1.13;;;;;;;35.62;33.69;99607.03;5069394;28;20683;-69
2023/06/22 10:58:22;;;;;;;0.73;0.73;;;;;;;35.50;35.56;99600.63;5067852;28;20202;-68
2023/06/22 11:00:49;;;;;;;1.10;1.00;;;;;;;35.64;36.59;99599.66;5062347;28;20200;-70
2023/06/22 11:03:16;;;;;;;0.75;0.75;;;;;;;35.77;34.72;99610.34;5056713;28;20211;-70
2023/06/22 11:05:43;;;;;;;0.73;0.73;;;;;;;35.79;33.81;99608.31;5058203;28;20208;-69
2023/06/22 11:08:09;;;;;;;0.88;0.88;;;;;;;35.85;34.32;99602.16;5061112;28;20204;-69
2023/06/22 11:10:36;;;;;;;0.77;0.77;;;;;;;35.90;32.78;99599.66;5061774;28;20696;-69
2023/06/22 11:13:04;;;;;;;1.02;0.93;;;;;;;35.85;34.58;99604.00;5061896;28;20200;-71
2023/06/22 11:15:32;;;;;;;0.70;0.70;;;;;;;35.90;32.44;99599.66;5060261;28;20196;-70
2023/06/22 11:17:59;;;;;;;1.48;1.02;;;;;;;36.08;33.70;99599.94;5060859;28;20210;-71
2023/06/22 11:20:25;;;;;;;0.90;0.90;;;;;;;36.12;35.30;99595.84;5060453;28;20196;-71
2023/06/22 11:22:52;;;;;;;1.02;1.02;;;;;;;35.84;32.94;99595.16;5060819;28;20208;-69
2023/06/22 11:25:19;;;;;;;0.80;0.80;;;;;;;35.52;34.14;99611.91;5059867;28;20203;-70
2023/06/22 11:27:46;;;;;;;0.80;0.80;;;;;;;35.42;33.89;99600.78;5057947;28;20584;-70
2023/06/22 11:30:13;;;;;;;0.75;0.73;;;;;;;35.41;33.28;99591.16;5065024;28;20216;-71
2023/06/22 11:32:42;;;;;;;0.82;0.60;;;;;;;35.42;33.96;99608.78;5063350;28;20200;-70
2023/06/22 11:35:09;;;;;;;0.70;0.70;;;;;;;35.40;34.84;99603.66;5064106;28;20196;-71